createdAt,value
2023-05-05T00:00:02.477Z,101174.63
2023-05-05T00:02:34.692Z,101173.06
2023-05-05T00:05:03.188Z,101178.13
2023-05-05T00:07:31.739Z,101170.53
2023-05-05T00:09:59.873Z,101178.59
2023-05-05T00:12:27.882Z,101179.41
2023-05-05T00:14:55.889Z,101168.31
2023-05-05T00:17:24.033Z,101171.00
2023-05-05T00:19:54.076Z,101171.97
2023-05-05T00:22:22.113Z,101165.50
2023-05-05T00:24:50.090Z,101167.53
2023-05-05T00:27:18.018Z,101174.16
2023-05-05T00:29:46.117Z,101172.91
2023-05-05T00:32:14.292Z,101162.66
2023-05-05T00:34:42.220Z,101156.13
2023-05-05T00:37:11.754Z,101156.97
2023-05-05T00:39:40.042Z,101157.41
2023-05-05T00:42:08.383Z,101156.56
2023-05-05T00:44:39.455Z,101153.31
2023-05-05T00:47:07.671Z,101139.84
2023-05-05T00:49:36.823Z,101142.25
2023-05-05T00:52:06.669Z,101143.50
2023-05-05T00:54:36.521Z,101138.44
2023-05-05T00:57:05.592Z,101144.09
2023-05-05T00:59:35.176Z,101139.75
2023-05-05T01:02:03.707Z,101136.72
2023-05-05T01:04:31.848Z,101133.66
2023-05-05T01:07:11.616Z,101131.69
2023-05-05T01:09:57.916Z,101132.41
2023-05-05T01:12:38.463Z,101125.75
2023-05-05T01:15:16.346Z,101124.44
2023-05-05T01:17:53.137Z,101119.63
2023-05-05T01:20:30.377Z,101112.53
2023-05-05T01:23:05.107Z,101118.19
2023-05-05T01:26:08.037Z,101114.59
2023-05-05T01:28:56.779Z,101111.50
2023-05-05T01:31:58.376Z,101116.97
2023-05-05T01:34:30.596Z,101119.28
2023-05-05T01:37:06.463Z,101120.84
2023-05-05T01:39:37.880Z,101113.66
2023-05-05T01:42:10.056Z,101120.78
2023-05-05T01:44:39.487Z,101113.25
2023-05-05T01:47:11.126Z,101114.06
2023-05-05T01:49:39.757Z,101107.22
2023-05-05T01:52:10.171Z,101111.63
2023-05-05T01:54:39.931Z,101109.72
2023-05-05T01:57:09.667Z,101099.47
2023-05-05T01:59:39.590Z,101104.69
2023-05-05T02:02:12.515Z,101105.44
2023-05-05T02:04:44.858Z,101097.94
2023-05-05T02:07:14.830Z,101100.13
2023-05-05T02:09:45.284Z,101103.94
2023-05-05T02:12:14.321Z,101102.59
2023-05-05T02:14:44.574Z,101096.94
2023-05-05T02:17:17.055Z,101097.44
2023-05-05T02:19:46.941Z,101099.19
2023-05-05T02:22:16.888Z,101100.28
2023-05-05T02:24:45.842Z,101095.88
2023-05-05T02:27:17.456Z,101096.84
2023-05-05T02:29:49.327Z,101088.72
2023-05-05T02:32:24.895Z,101084.03
2023-05-05T02:34:55.408Z,101092.09
2023-05-05T02:37:27.672Z,101084.66
2023-05-05T02:40:01.304Z,101080.09
2023-05-05T02:42:36.556Z,101078.69
2023-05-05T02:45:11.951Z,101077.06
2023-05-05T02:47:44.431Z,101082.03
2023-05-05T02:50:13.424Z,101081.25
2023-05-05T02:52:48.585Z,101081.81
2023-05-05T02:55:18.254Z,101083.41
2023-05-05T02:57:52.752Z,101090.09
2023-05-05T03:00:29.491Z,101078.09
2023-05-05T03:03:14.028Z,101081.81
2023-05-05T03:05:51.499Z,101077.47
2023-05-05T03:08:29.618Z,101081.72
2023-05-05T03:11:01.707Z,101080.03
2023-05-05T03:13:33.429Z,101069.97
2023-05-05T03:16:06.605Z,101075.47
2023-05-05T03:18:37.540Z,101072.81
2023-05-05T03:21:09.009Z,101079.81
2023-05-05T03:23:40.821Z,101082.00
2023-05-05T03:26:18.348Z,101072.00
2023-05-05T03:28:46.526Z,101079.84
2023-05-05T03:31:35.042Z,101091.69
2023-05-05T03:34:05.242Z,101085.78
2023-05-05T03:36:40.070Z,101082.28
2023-05-05T03:39:11.914Z,101086.97
2023-05-05T03:41:39.769Z,101073.13
2023-05-05T03:44:09.569Z,101076.41
2023-05-05T03:46:38.591Z,101082.44
2023-05-05T03:49:10.795Z,101075.50
2023-05-05T03:51:40.878Z,101074.31
2023-05-05T03:54:10.007Z,101073.47
2023-05-05T03:56:38.859Z,101070.16
2023-05-05T03:59:06.797Z,101068.78
2023-05-05T04:01:37.535Z,101059.44
2023-05-05T04:04:06.133Z,101065.63
2023-05-05T04:06:35.828Z,101063.25
2023-05-05T04:09:04.049Z,101066.19
2023-05-05T04:11:31.950Z,101068.03
2023-05-05T04:14:00.493Z,101070.06
2023-05-05T04:16:31.156Z,101069.66
2023-05-05T04:19:00.651Z,101079.72
2023-05-05T04:21:39.343Z,101090.28
2023-05-05T04:24:07.880Z,101086.72
2023-05-05T04:26:35.881Z,101100.66
2023-05-05T04:29:04.438Z,101085.72
2023-05-05T04:31:33.361Z,101085.28
2023-05-05T04:34:02.270Z,101084.97
2023-05-05T04:36:30.514Z,101083.72
2023-05-05T04:38:59.802Z,101072.00
2023-05-05T04:41:29.520Z,101058.28
2023-05-05T04:43:58.596Z,101068.94
2023-05-05T04:46:27.710Z,101067.03
2023-05-05T04:48:56.073Z,101075.44
2023-05-05T04:51:23.989Z,101075.06
2023-05-05T04:53:51.913Z,101084.09
2023-05-05T04:56:21.334Z,101086.81
2023-05-05T04:58:49.346Z,101083.47
2023-05-05T05:01:17.558Z,101083.72
2023-05-05T05:03:45.854Z,101073.63
2023-05-05T05:06:14.054Z,101074.31
2023-05-05T05:08:42.380Z,101069.75
2023-05-05T05:11:10.729Z,101065.47
2023-05-05T05:13:40.108Z,101052.00
2023-05-05T05:16:09.333Z,101063.03
2023-05-05T05:18:37.731Z,101051.59
2023-05-05T05:21:06.491Z,101071.44
2023-05-05T05:23:35.174Z,101061.31
2023-05-05T05:26:05.214Z,101060.94
2023-05-05T05:28:33.781Z,101062.25
2023-05-05T05:31:03.133Z,101053.97
2023-05-05T05:33:31.740Z,101048.97
2023-05-05T05:36:00.562Z,101047.28
2023-05-05T05:38:29.207Z,101053.16
2023-05-05T05:41:00.660Z,101058.72
2023-05-05T05:43:29.759Z,101077.69
2023-05-05T05:45:57.903Z,101089.81
2023-05-05T05:48:28.734Z,101083.50
2023-05-05T05:50:58.111Z,101082.88
2023-05-05T05:53:26.858Z,101085.97
2023-05-05T05:55:55.751Z,101081.53
2023-05-05T05:58:24.024Z,101084.81
2023-05-05T06:00:52.136Z,101081.56
2023-05-05T06:03:20.996Z,101081.44
2023-05-05T06:05:51.164Z,101085.09
2023-05-05T06:08:20.065Z,101082.16
2023-05-05T06:10:53.874Z,101072.88
2023-05-05T06:13:22.555Z,101073.50
2023-05-05T06:15:52.790Z,101082.66
2023-05-05T06:18:21.438Z,101091.69
2023-05-05T06:20:52.680Z,101092.13
2023-05-05T06:23:23.630Z,101087.56
2023-05-05T06:25:57.011Z,101082.97
2023-05-05T06:28:25.136Z,101086.06
2023-05-05T06:30:53.154Z,101071.81
2023-05-05T06:33:21.572Z,101091.38
2023-05-05T06:35:52.296Z,101090.84
2023-05-05T06:38:22.339Z,101087.38
2023-05-05T06:40:50.615Z,101089.28
2023-05-05T06:43:18.724Z,101084.09
2023-05-05T06:45:53.855Z,101084.81
2023-05-05T06:48:22.130Z,101079.41
2023-05-05T06:50:51.676Z,101080.09
2023-05-05T06:53:19.677Z,101081.22
2023-05-05T06:55:49.010Z,101071.97
2023-05-05T06:58:16.827Z,101066.50
2023-05-05T07:00:44.725Z,101071.25
2023-05-05T07:03:12.808Z,101071.22
2023-05-05T07:05:40.684Z,101076.44
2023-05-05T07:08:11.306Z,101081.66
2023-05-05T07:10:39.178Z,101086.31
2023-05-05T07:13:07.852Z,101076.75
2023-05-05T07:15:35.923Z,101084.75
2023-05-05T07:18:03.828Z,101084.41
2023-05-05T07:20:32.233Z,101083.19
2023-05-05T07:23:00.218Z,101075.56
2023-05-05T07:25:30.317Z,101075.78
2023-05-05T07:27:58.651Z,101068.88
2023-05-05T07:30:26.648Z,101072.50
2023-05-05T07:32:55.029Z,101072.06
2023-05-05T07:35:23.549Z,101070.97
2023-05-05T07:37:51.959Z,101068.41
2023-05-05T07:40:20.582Z,101070.66
2023-05-05T07:42:49.839Z,101067.47
2023-05-05T07:45:17.832Z,101068.97
2023-05-05T07:47:45.890Z,101086.31
2023-05-05T07:50:13.865Z,101069.59
2023-05-05T07:52:46.795Z,101077.38
2023-05-05T07:55:19.528Z,101072.44
2023-05-05T07:57:49.647Z,101082.22
2023-05-05T08:00:19.455Z,101088.94
2023-05-05T08:02:47.945Z,101105.44
2023-05-05T08:05:16.470Z,101115.53
2023-05-05T08:07:44.580Z,101119.53
2023-05-05T08:10:12.706Z,101117.00
2023-05-05T08:12:41.502Z,101122.34
2023-05-05T08:15:55.938Z,101120.66
2023-05-05T08:19:17.634Z,101132.66
2023-05-05T08:22:07.320Z,101126.34
2023-05-05T08:24:35.154Z,101128.03
2023-05-05T08:27:03.638Z,101137.38
2023-05-05T08:29:31.458Z,101141.47
2023-05-05T08:32:00.880Z,101141.94
2023-05-05T08:34:28.700Z,101147.38
2023-05-05T08:36:56.541Z,101155.13
2023-05-05T08:39:24.500Z,101147.22
2023-05-05T08:41:52.504Z,101142.53
2023-05-05T08:44:20.338Z,101135.63
2023-05-05T08:46:50.312Z,101119.31
2023-05-05T08:49:21.368Z,101120.16
2023-05-05T08:51:52.168Z,101124.81
2023-05-05T08:54:21.374Z,101119.84
2023-05-05T08:56:51.460Z,101125.22
2023-05-05T08:59:24.194Z,101110.59
2023-05-05T09:01:54.366Z,101116.44
2023-05-05T09:04:24.145Z,101107.28
2023-05-05T09:06:52.312Z,101089.19
2023-05-05T09:09:21.252Z,101094.44
2023-05-05T09:11:49.416Z,101091.31
2023-05-05T09:14:17.342Z,101084.53
2023-05-05T09:16:45.543Z,101077.88
2023-05-05T09:19:13.678Z,101083.09
2023-05-05T09:21:48.661Z,101087.38
2023-05-05T09:24:16.746Z,101079.41
2023-05-05T09:26:46.393Z,101085.13
2023-05-05T09:29:19.466Z,101086.88
2023-05-05T09:32:05.344Z,101093.53
2023-05-05T09:34:35.378Z,101082.72
2023-05-05T09:37:06.053Z,101083.63
2023-05-05T09:39:34.108Z,101089.34
2023-05-05T09:42:03.761Z,101087.91
2023-05-05T09:44:36.392Z,101103.59
2023-05-05T09:47:09.375Z,101114.34
2023-05-05T09:49:42.925Z,101116.94
2023-05-05T09:52:18.480Z,101121.41
2023-05-05T09:54:55.245Z,101106.13
2023-05-05T09:57:31.597Z,101108.25
2023-05-05T10:00:03.278Z,101104.69
2023-05-05T10:02:35.012Z,101108.91
2023-05-05T10:05:07.300Z,101106.69
2023-05-05T10:07:39.054Z,101108.69
2023-05-05T10:10:09.501Z,101099.56
2023-05-05T10:12:38.373Z,101109.56
2023-05-05T10:15:08.989Z,101105.44
2023-05-05T10:17:38.722Z,101098.50
2023-05-05T10:20:11.620Z,101092.16
2023-05-05T10:22:58.987Z,101092.72
2023-05-05T10:25:31.791Z,101085.38
2023-05-05T10:28:01.583Z,101090.09
2023-05-05T10:30:31.528Z,101086.81
2023-05-05T10:33:18.543Z,101085.66
2023-05-05T10:35:55.689Z,101077.03
2023-05-05T10:38:28.852Z,101074.84
2023-05-05T10:40:58.754Z,101084.38
2023-05-05T10:43:27.431Z,101083.63
2023-05-05T10:45:56.269Z,101069.16
2023-05-05T10:48:33.512Z,101071.72
2023-05-05T10:51:18.863Z,101072.25
2023-05-05T10:54:05.349Z,101064.75
2023-05-05T10:56:36.251Z,101061.78
2023-05-05T10:59:04.267Z,101065.94
2023-05-05T11:01:33.957Z,101060.63
2023-05-05T11:04:20.574Z,101072.66
2023-05-05T11:07:22.573Z,101061.47
2023-05-05T11:10:01.195Z,101068.50
2023-05-05T11:12:29.703Z,101067.97
2023-05-05T11:15:38.027Z,101063.44
2023-05-05T11:18:08.468Z,101057.19
2023-05-05T11:21:07.282Z,101050.16
2023-05-05T11:23:35.391Z,101060.97
2023-05-05T11:26:04.757Z,101064.56
2023-05-05T11:28:33.479Z,101049.97
2023-05-05T11:31:18.914Z,101046.97
2023-05-05T11:33:47.251Z,101036.63
2023-05-05T11:36:16.528Z,101042.34
2023-05-05T11:39:07.344Z,101045.59
2023-05-05T11:42:05.342Z,101052.16
2023-05-05T11:44:36.842Z,101046.69
2023-05-05T11:47:33.233Z,101049.25
2023-05-05T11:50:18.121Z,101054.19
2023-05-05T11:52:46.563Z,101052.03
2023-05-05T11:55:20.126Z,101040.41
2023-05-05T11:57:49.457Z,101042.69
2023-05-05T12:00:18.332Z,101042.22
2023-05-05T12:02:46.392Z,101047.13
2023-05-05T12:05:20.738Z,101050.56
2023-05-05T12:07:48.875Z,101051.00
2023-05-05T12:10:23.951Z,101045.91
2023-05-05T12:12:56.105Z,101032.66
2023-05-05T12:15:31.684Z,101027.50
2023-05-05T12:18:02.117Z,101033.34
2023-05-05T12:20:32.249Z,101027.75
2023-05-05T12:23:04.403Z,101039.94
2023-05-05T12:25:39.832Z,101037.38
2023-05-05T12:28:09.984Z,101029.41
2023-05-05T12:30:37.941Z,101028.28
2023-05-05T12:33:08.036Z,101027.56
2023-05-05T12:35:37.011Z,101031.50
2023-05-05T12:38:05.396Z,101024.00
2023-05-05T12:40:52.983Z,101024.84
2023-05-05T12:43:30.459Z,101023.84
2023-05-05T12:46:03.636Z,101024.06
2023-05-05T12:48:31.791Z,101027.72
2023-05-05T12:51:13.874Z,101028.94
2023-05-05T12:53:42.947Z,101031.06
2023-05-05T12:56:36.473Z,101026.09
2023-05-05T12:59:07.506Z,101015.25
2023-05-05T13:01:35.762Z,101011.81
2023-05-05T13:04:22.936Z,101012.03
2023-05-05T13:06:54.018Z,101020.41
2023-05-05T13:09:26.398Z,101017.56
2023-05-05T13:11:55.415Z,101016.13
2023-05-05T13:14:25.056Z,101002.53
2023-05-05T13:16:54.227Z,100998.41
2023-05-05T13:19:23.741Z,101002.06
2023-05-05T13:21:52.208Z,100992.88
2023-05-05T13:24:28.771Z,100989.63
2023-05-05T13:27:04.421Z,100983.69
2023-05-05T13:29:34.469Z,100976.75
2023-05-05T13:32:02.479Z,100972.03
2023-05-05T13:34:30.627Z,100972.00
2023-05-05T13:36:58.958Z,100967.59
2023-05-05T13:39:26.904Z,100959.88
2023-05-05T13:41:54.909Z,100968.66
2023-05-05T13:44:23.051Z,100959.81
2023-05-05T13:46:52.598Z,100955.63
2023-05-05T13:49:21.052Z,100959.00
2023-05-05T13:51:49.105Z,100954.19
2023-05-05T13:54:17.609Z,100949.47
2023-05-05T13:56:46.256Z,100947.72
2023-05-05T13:59:14.435Z,100944.59
2023-05-05T14:01:43.109Z,100937.91
2023-05-05T14:04:12.905Z,100926.88
2023-05-05T14:06:40.917Z,100919.59
2023-05-05T14:09:09.111Z,100920.25
2023-05-05T14:11:37.269Z,100919.03
2023-05-05T14:14:06.117Z,100923.09
2023-05-05T14:16:34.327Z,100912.91
2023-05-05T14:19:02.366Z,100910.31
2023-05-05T14:21:32.555Z,100905.50
2023-05-05T14:24:00.656Z,100902.22
2023-05-05T14:26:29.250Z,100895.66
2023-05-05T14:28:57.420Z,100885.38
2023-05-05T14:31:25.539Z,100878.91
2023-05-05T14:33:54.106Z,100890.41
2023-05-05T14:36:21.988Z,100890.50
2023-05-05T14:38:51.508Z,100893.41
2023-05-05T14:41:19.426Z,100894.22
2023-05-05T14:43:47.402Z,100892.47
2023-05-05T14:46:15.574Z,100891.22
2023-05-05T14:48:43.497Z,100895.59
2023-05-05T14:51:11.509Z,100894.47
2023-05-05T14:53:39.468Z,100895.03
2023-05-05T14:56:08.899Z,100892.22
2023-05-05T14:58:37.218Z,100897.91
2023-05-05T15:01:05.322Z,100890.22
2023-05-05T15:03:33.464Z,100889.72
2023-05-05T15:06:01.908Z,100890.59
2023-05-05T15:08:29.925Z,100887.13
2023-05-05T15:10:57.963Z,100889.44
2023-05-05T15:13:27.569Z,100885.28
2023-05-05T15:15:55.748Z,100888.13
2023-05-05T15:18:23.807Z,100884.63
2023-05-05T15:20:52.065Z,100881.72
2023-05-05T15:23:20.208Z,100890.19
2023-05-05T15:25:47.998Z,100897.88
2023-05-05T15:28:15.877Z,100897.09
2023-05-05T15:30:45.973Z,100892.53
2023-05-05T15:33:14.574Z,100888.09
2023-05-05T15:35:42.636Z,100881.41
2023-05-05T15:38:10.741Z,100888.94
2023-05-05T15:40:38.722Z,100890.31
2023-05-05T15:43:06.832Z,100894.66
2023-05-05T15:45:34.848Z,100896.91
2023-05-05T15:48:04.292Z,100905.53
2023-05-05T15:50:32.422Z,100907.19
2023-05-05T15:53:00.567Z,100909.69
2023-05-05T15:55:28.993Z,100914.25
2023-05-05T15:57:57.230Z,100921.53
2023-05-05T16:00:25.899Z,100935.72
2023-05-05T16:02:53.972Z,100928.69
2023-05-05T16:05:23.600Z,100933.31
2023-05-05T16:07:52.561Z,100928.88
2023-05-05T16:10:20.858Z,100934.72
2023-05-05T16:12:48.817Z,100938.22
2023-05-05T16:15:16.798Z,100951.31
2023-05-05T16:17:44.752Z,100959.28
2023-05-05T16:20:13.451Z,100960.00
2023-05-05T16:22:42.865Z,100967.97
2023-05-05T16:25:11.203Z,100977.28
2023-05-05T16:27:39.322Z,100980.19
2023-05-05T16:30:08.981Z,100983.88
2023-05-05T16:32:37.392Z,100985.94
2023-05-05T16:35:07.446Z,100980.34
2023-05-05T16:37:36.680Z,100985.22
2023-05-05T16:40:11.028Z,100981.03
2023-05-05T16:42:43.704Z,100983.50
2023-05-05T16:45:14.856Z,100982.44
2023-05-05T16:47:43.544Z,100982.09
2023-05-05T16:50:21.829Z,100978.63
2023-05-05T16:53:02.462Z,100977.19
2023-05-05T16:55:32.193Z,100969.44
2023-05-05T16:58:11.463Z,100962.53
2023-05-05T17:00:50.417Z,100962.56
2023-05-05T17:03:21.967Z,100958.38
2023-05-05T17:05:54.010Z,100962.03
2023-05-05T17:08:34.310Z,100968.81
2023-05-05T17:11:06.774Z,100982.03
2023-05-05T17:13:37.756Z,100951.22
2023-05-05T17:19:17.123Z,100987.25
2023-05-05T17:21:52.748Z,100991.31
2023-05-05T17:24:20.975Z,100998.09
2023-05-05T17:26:59.819Z,101009.31
2023-05-05T17:29:54.848Z,101011.31
2023-05-05T17:32:25.965Z,101014.78
2023-05-05T17:34:56.380Z,101020.19
2023-05-05T17:37:32.740Z,101014.03
2023-05-05T17:40:32.829Z,101010.31
2023-05-05T17:43:05.382Z,101020.88
2023-05-05T17:45:40.462Z,101012.41
2023-05-05T17:48:08.879Z,101013.13
2023-05-05T17:50:41.354Z,101010.78
2023-05-05T17:53:12.049Z,101005.09
2023-05-05T17:55:39.984Z,101008.44
2023-05-05T17:58:09.288Z,101009.97
2023-05-05T18:00:37.344Z,101009.94
2023-05-05T18:03:06.497Z,101007.19
2023-05-05T18:05:35.143Z,101006.97
2023-05-05T18:08:05.579Z,101003.66
2023-05-05T18:10:33.679Z,100997.22
2023-05-05T18:13:01.719Z,100998.97
2023-05-05T18:15:34.120Z,101004.41
2023-05-05T18:18:02.931Z,100998.28
2023-05-05T18:20:32.757Z,100992.19
2023-05-05T18:23:02.261Z,100997.34
2023-05-05T18:25:31.333Z,101000.78
2023-05-05T18:27:59.503Z,100996.38
2023-05-05T18:30:27.460Z,101000.38
2023-05-05T18:32:57.658Z,101007.69
2023-05-05T18:35:29.840Z,101007.75
2023-05-05T18:37:58.106Z,101008.25
2023-05-05T18:40:26.178Z,101020.22
2023-05-05T18:42:54.425Z,101014.63
2023-05-05T18:45:25.855Z,101007.97
2023-05-05T18:47:53.926Z,101011.13
2023-05-05T18:50:24.244Z,101017.22
2023-05-05T18:52:52.651Z,101020.84
2023-05-05T18:55:21.410Z,101020.31
2023-05-05T18:57:49.794Z,101027.81
2023-05-05T19:00:19.962Z,101027.34
2023-05-05T19:02:48.250Z,101024.03
2023-05-05T19:05:16.880Z,101030.63
2023-05-05T19:07:46.380Z,101042.06
2023-05-05T19:10:14.616Z,101049.13
2023-05-05T19:12:45.539Z,101052.91
2023-05-05T19:15:14.437Z,101051.94
2023-05-05T19:17:42.874Z,101055.22
2023-05-05T19:20:11.785Z,101061.28
2023-05-05T19:22:39.896Z,101057.47
2023-05-05T19:25:10.630Z,101063.78
2023-05-05T19:27:39.067Z,101063.00
2023-05-05T19:30:08.896Z,101060.69
2023-05-05T19:32:37.673Z,101060.84
2023-05-05T19:35:08.433Z,101060.06
2023-05-05T19:37:36.949Z,101057.28
2023-05-05T19:40:06.450Z,101056.13
2023-05-05T19:42:36.480Z,101058.75
2023-05-05T19:45:04.954Z,101051.88
2023-05-05T19:47:36.359Z,101055.31
2023-05-05T19:50:05.874Z,101050.34
2023-05-05T19:52:33.913Z,101046.00
2023-05-05T19:55:04.568Z,101047.25
2023-05-05T19:57:33.097Z,101047.06
2023-05-05T20:00:06.070Z,101054.22
2023-05-05T20:02:37.045Z,101048.84
2023-05-05T20:05:05.943Z,101050.78
2023-05-05T20:07:37.168Z,101047.34
2023-05-05T20:10:05.852Z,101045.53
2023-05-05T20:12:34.274Z,101043.00
2023-05-05T20:15:07.780Z,101048.59
2023-05-05T20:17:36.077Z,101048.47
2023-05-05T20:20:04.586Z,101041.69
2023-05-05T20:22:33.133Z,101049.75
2023-05-05T20:25:01.534Z,101044.22
2023-05-05T20:27:30.096Z,101049.91
2023-05-05T20:29:58.377Z,101044.50
2023-05-05T20:32:28.849Z,101038.00
2023-05-05T20:34:57.053Z,101041.78
2023-05-05T20:37:27.556Z,101043.13
2023-05-05T20:39:56.782Z,101043.91
2023-05-05T20:42:25.639Z,101041.94
2023-05-05T20:44:53.679Z,101040.34
2023-05-05T20:47:21.654Z,101040.47
2023-05-05T20:49:52.195Z,101032.97
2023-05-05T20:52:20.561Z,101028.28
2023-05-05T20:54:50.453Z,101035.31
2023-05-05T20:57:18.781Z,101023.47
2023-05-05T20:59:47.166Z,101015.56
2023-05-05T21:02:15.375Z,101006.22
2023-05-05T21:04:43.619Z,101005.03
2023-05-05T21:07:13.090Z,101001.41
2023-05-05T21:09:41.052Z,100998.78
2023-05-05T21:12:09.210Z,101001.31
2023-05-05T21:14:37.334Z,100995.75
2023-05-05T21:17:07.672Z,100982.91
2023-05-05T21:19:36.245Z,100982.34
2023-05-05T21:22:04.474Z,100987.69
2023-05-05T21:24:34.254Z,100983.88
2023-05-05T21:27:04.519Z,100985.25
2023-05-05T21:29:37.994Z,100986.28
2023-05-05T21:32:06.996Z,101002.84
2023-05-05T21:34:35.365Z,100987.84
2023-05-05T21:37:03.754Z,100993.00
2023-05-05T21:39:33.537Z,100993.09
2023-05-05T21:42:01.976Z,100983.34
2023-05-05T21:44:30.093Z,100978.69
2023-05-05T21:46:58.509Z,100982.91
2023-05-05T21:49:26.461Z,100973.84
2023-05-05T21:51:54.429Z,100965.47
2023-05-05T21:54:22.634Z,100968.78
2023-05-05T21:56:52.079Z,100966.88
2023-05-05T21:59:20.500Z,100973.13
2023-05-05T22:01:50.448Z,100969.03
2023-05-05T22:04:18.809Z,100977.13
2023-05-05T22:06:47.164Z,100977.22
2023-05-05T22:09:15.143Z,100974.38
2023-05-05T22:11:43.326Z,100969.34
2023-05-05T22:14:12.700Z,100970.63
2023-05-05T22:16:40.567Z,100967.94
2023-05-05T22:19:08.822Z,100967.63
2023-05-05T22:21:36.889Z,100979.19
2023-05-05T22:24:05.489Z,100978.53
2023-05-05T22:26:33.791Z,100975.72
2023-05-05T22:29:03.962Z,100979.84
2023-05-05T22:31:33.444Z,100989.31
2023-05-05T22:34:01.609Z,100986.34
2023-05-05T22:36:29.871Z,100979.84
2023-05-05T22:38:57.982Z,100986.25
2023-05-05T22:41:26.263Z,100981.78
2023-05-05T22:43:54.497Z,100969.88
2023-05-05T22:46:22.746Z,100978.31
2023-05-05T22:48:54.293Z,100980.38
2023-05-05T22:51:23.347Z,100973.50
2023-05-05T22:53:51.499Z,100977.22
2023-05-05T22:56:22.066Z,100980.38
2023-05-05T22:58:50.315Z,100974.63
2023-05-05T23:01:18.365Z,100978.50
2023-05-05T23:03:46.351Z,100977.44
2023-05-05T23:06:15.757Z,100975.06
2023-05-05T23:08:44.727Z,100974.88
2023-05-05T23:11:12.912Z,100970.22
2023-05-05T23:13:41.079Z,100976.38
2023-05-05T23:16:09.653Z,100984.47
2023-05-05T23:18:38.621Z,100979.59
2023-05-05T23:21:06.751Z,100987.91
2023-05-05T23:23:36.352Z,100990.22
2023-05-05T23:26:04.496Z,100991.44
2023-05-05T23:28:32.795Z,100989.06
2023-05-05T23:31:01.198Z,100989.06
2023-05-05T23:33:29.161Z,100993.59
2023-05-05T23:35:57.311Z,100994.97
2023-05-05T23:38:25.376Z,100992.88
2023-05-05T23:40:55.030Z,101000.47
2023-05-05T23:43:23.405Z,100997.97
2023-05-05T23:45:51.720Z,101004.22
2023-05-05T23:48:19.836Z,101002.31
2023-05-05T23:50:47.951Z,101001.84
2023-05-05T23:53:17.802Z,100999.94
2023-05-05T23:55:45.641Z,101010.56
2023-05-05T23:58:14.869Z,101013.22
